createdAt,value
2019-02-19T00:01:16.312Z,17.82
2019-02-19T00:03:46.240Z,15.90
2019-02-19T00:06:16.160Z,20.72
2019-02-19T00:08:46.102Z,20.30
2019-02-19T00:11:15.928Z,23.98
2019-02-19T00:13:45.870Z,21.90
2019-02-19T00:16:15.744Z,15.53
2019-02-19T00:18:45.811Z,15.30
2019-02-19T00:21:15.633Z,14.40
2019-02-19T00:23:45.627Z,14.95
2019-02-19T00:26:18.780Z,13.28
2019-02-19T00:28:48.710Z,20.12
2019-02-19T00:31:18.647Z,13.78
2019-02-19T00:33:48.584Z,15.20
2019-02-19T00:36:18.575Z,25.60
2019-02-19T00:38:48.460Z,15.28
2019-02-19T00:41:18.541Z,18.02
2019-02-19T00:43:48.442Z,17.15
2019-02-19T00:46:18.414Z,16.07
2019-02-19T00:48:48.370Z,17.87
2019-02-19T00:51:18.301Z,23.18
2019-02-19T00:53:48.211Z,19.85
2019-02-19T00:56:18.163Z,26.40
2019-02-19T00:58:48.134Z,15.20
2019-02-19T01:01:18.043Z,17.90
2019-02-19T01:03:48.003Z,19.27
2019-02-19T01:06:17.814Z,20.82
2019-02-19T01:08:47.749Z,27.15
2019-02-19T01:11:17.540Z,16.75
2019-02-19T01:13:47.527Z,19.10
2019-02-19T01:16:17.550Z,16.30
2019-02-19T01:18:47.334Z,14.15
2019-02-19T01:21:17.267Z,14.38
2019-02-19T01:23:47.277Z,14.03
2019-02-19T01:26:17.086Z,13.60
2019-02-19T01:28:47.042Z,14.45
2019-02-19T01:31:17.108Z,14.30
2019-02-19T01:33:47.144Z,13.78
2019-02-19T01:36:17.155Z,14.28
2019-02-19T01:38:47.090Z,13.97
2019-02-19T01:41:16.979Z,14.00
2019-02-19T01:43:46.921Z,12.90
2019-02-19T01:46:16.973Z,13.00
2019-02-19T01:48:46.983Z,11.38
2019-02-19T01:51:16.999Z,13.62
2019-02-19T01:53:46.953Z,9.63
2019-02-19T01:56:16.940Z,10.00
2019-02-19T01:58:46.711Z,10.70
2019-02-19T02:01:16.603Z,10.13
2019-02-19T02:03:46.580Z,10.03
2019-02-19T02:06:16.447Z,9.60
2019-02-19T02:08:46.461Z,10.28
2019-02-19T02:11:16.233Z,11.22
2019-02-19T02:13:46.159Z,10.75
2019-02-19T02:16:15.940Z,10.32
2019-02-19T02:18:45.847Z,11.27
2019-02-19T02:21:15.746Z,10.38
2019-02-19T02:23:45.694Z,10.30
2019-02-19T02:26:15.542Z,10.20
2019-02-19T02:28:45.470Z,11.53
2019-02-19T02:31:15.386Z,10.53
2019-02-19T02:33:45.200Z,10.53
2019-02-19T02:36:15.105Z,10.70
2019-02-19T02:38:44.928Z,10.40
2019-02-19T02:41:14.834Z,9.57
2019-02-19T02:43:44.677Z,10.10
2019-02-19T02:46:14.606Z,9.70
2019-02-19T02:48:44.276Z,9.38
2019-02-19T02:51:14.038Z,9.30
2019-02-19T02:53:43.820Z,8.63
2019-02-19T02:56:13.743Z,8.73
2019-02-19T02:58:43.498Z,8.13
2019-02-19T03:01:13.287Z,8.18
2019-02-19T03:03:43.143Z,8.68
2019-02-19T03:06:34.419Z,9.50
2019-02-19T03:09:04.823Z,8.68
2019-02-19T03:11:36.251Z,8.55
2019-02-19T03:14:06.159Z,8.40
2019-02-19T03:16:37.914Z,8.90
2019-02-19T03:19:07.622Z,9.13
2019-02-19T03:21:37.499Z,9.60
2019-02-19T03:24:07.404Z,11.88
2019-02-19T03:26:37.348Z,10.30
2019-02-19T03:29:07.222Z,10.28
2019-02-19T03:31:37.102Z,10.82
2019-02-19T03:34:06.965Z,10.68
2019-02-19T03:36:36.802Z,10.78
2019-02-19T03:39:06.695Z,11.90
2019-02-19T03:41:36.515Z,12.80
2019-02-19T03:44:12.383Z,9.43
2019-02-19T03:46:42.331Z,10.23
2019-02-19T03:49:12.230Z,8.68
2019-02-19T03:51:42.047Z,9.18
2019-02-19T03:54:11.991Z,8.83
2019-02-19T03:56:41.803Z,9.10
2019-02-19T03:59:11.482Z,9.13
2019-02-19T04:01:41.232Z,11.30
2019-02-19T04:04:10.966Z,8.43
2019-02-19T04:06:40.787Z,9.03
2019-02-19T04:09:10.578Z,7.85
2019-02-19T04:11:40.345Z,9.20
2019-02-19T04:14:10.164Z,8.85
2019-02-19T04:16:40.019Z,6.80
2019-02-19T04:19:09.735Z,6.87
2019-02-19T04:21:39.589Z,8.38
2019-02-19T04:24:09.280Z,6.45
2019-02-19T04:26:38.986Z,6.78
2019-02-19T04:29:08.862Z,7.72
2019-02-19T04:31:38.631Z,7.62
2019-02-19T04:34:08.352Z,9.93
2019-02-19T04:36:38.262Z,7.97
2019-02-19T04:39:08.227Z,8.05
2019-02-19T04:41:37.917Z,7.42
2019-02-19T04:44:08.677Z,7.97
2019-02-19T04:46:38.505Z,7.42
2019-02-19T04:49:08.395Z,7.10
2019-02-19T04:51:38.280Z,7.25
2019-02-19T04:54:09.126Z,7.67
2019-02-19T04:56:38.960Z,7.30
2019-02-19T04:59:08.799Z,7.50
2019-02-19T05:01:38.704Z,7.60
2019-02-19T05:04:08.576Z,7.42
2019-02-19T05:06:38.374Z,7.30
2019-02-19T05:09:08.175Z,7.03
2019-02-19T05:11:37.959Z,7.08
2019-02-19T05:14:07.717Z,6.75
2019-02-19T05:16:40.619Z,7.55
2019-02-19T05:19:09.035Z,7.05
2019-02-19T05:21:38.766Z,7.67
2019-02-19T05:24:08.508Z,7.75
2019-02-19T05:26:38.214Z,7.70
2019-02-19T05:29:08.240Z,7.08
2019-02-19T05:31:38.085Z,6.95
2019-02-19T05:34:07.875Z,7.28
2019-02-19T05:36:37.723Z,8.05
2019-02-19T05:39:07.526Z,8.05
2019-02-19T05:41:37.324Z,8.13
2019-02-19T05:44:08.062Z,8.13
2019-02-19T05:46:37.961Z,8.60
2019-02-19T05:49:09.418Z,8.25
2019-02-19T05:51:39.118Z,8.20
2019-02-19T05:54:08.863Z,8.70
2019-02-19T05:56:38.591Z,8.58
2019-02-19T05:59:08.354Z,8.63
2019-02-19T06:01:38.242Z,8.23
2019-02-19T06:04:08.148Z,8.70
2019-02-19T06:06:37.895Z,9.20
2019-02-19T06:09:07.592Z,10.20
2019-02-19T06:11:37.427Z,10.08
2019-02-19T06:14:07.266Z,8.88
2019-02-19T06:18:23.761Z,9.13
2019-02-19T06:20:53.543Z,8.43
2019-02-19T06:23:23.374Z,8.50
2019-02-19T06:25:53.246Z,8.15
2019-02-19T06:28:23.067Z,8.38
2019-02-19T06:30:52.907Z,8.37
2019-02-19T06:33:22.730Z,8.60
2019-02-19T06:35:52.582Z,9.43
2019-02-19T06:38:22.290Z,8.60
2019-02-19T06:40:52.006Z,8.15
2019-02-19T06:43:21.879Z,9.08
2019-02-19T06:45:52.775Z,8.65
2019-02-19T06:48:22.463Z,8.75
2019-02-19T06:50:52.378Z,8.38
2019-02-19T06:53:22.138Z,9.03
2019-02-19T06:55:52.025Z,9.33
2019-02-19T06:58:21.883Z,8.80
2019-02-19T07:00:51.722Z,8.18
2019-02-19T07:03:26.246Z,9.40
2019-02-19T07:05:56.057Z,9.48
2019-02-19T07:08:25.824Z,9.23
2019-02-19T07:10:59.384Z,9.80
2019-02-19T07:13:29.027Z,9.80
2019-02-19T07:15:58.979Z,9.87
2019-02-19T07:18:28.671Z,9.58
2019-02-19T07:20:58.351Z,9.03
2019-02-19T07:23:28.023Z,9.35
2019-02-19T07:25:57.739Z,9.23
2019-02-19T07:28:27.531Z,9.13
2019-02-19T07:30:57.234Z,9.25
2019-02-19T07:33:26.869Z,9.00
2019-02-19T07:35:56.622Z,9.10
2019-02-19T07:38:26.330Z,9.00
2019-02-19T07:40:55.983Z,9.18
2019-02-19T07:43:25.698Z,9.20
2019-02-19T07:45:55.627Z,8.78
2019-02-19T07:48:25.444Z,9.13
2019-02-19T07:50:55.193Z,8.75
2019-02-19T07:53:24.902Z,8.55
2019-02-19T07:55:54.705Z,8.50
2019-02-19T07:58:24.517Z,9.00
2019-02-19T08:00:57.039Z,9.35
2019-02-19T08:03:26.777Z,9.88
2019-02-19T08:05:56.627Z,8.90
2019-02-19T08:08:26.343Z,9.23
2019-02-19T08:10:56.003Z,9.18
2019-02-19T08:13:25.779Z,9.90
2019-02-19T08:15:55.498Z,10.13
2019-02-19T08:18:25.364Z,9.30
2019-02-19T08:20:55.080Z,9.70
2019-02-19T08:23:24.818Z,10.25
2019-02-19T08:25:54.655Z,10.40
2019-02-19T08:28:24.438Z,10.05
2019-02-19T08:30:54.251Z,9.95
2019-02-19T08:33:24.046Z,10.20
2019-02-19T08:35:53.868Z,11.05
2019-02-19T08:38:23.782Z,11.65
2019-02-19T08:40:53.558Z,11.60
2019-02-19T08:43:23.288Z,11.70
2019-02-19T08:45:52.990Z,11.53
2019-02-19T08:48:22.836Z,11.65
2019-02-19T08:50:52.555Z,11.57
2019-02-19T08:53:22.222Z,11.70
2019-02-19T08:55:51.895Z,12.55
2019-02-19T08:58:21.902Z,11.85
2019-02-19T09:00:51.590Z,11.85
2019-02-19T09:03:21.344Z,11.97
2019-02-19T09:05:51.213Z,11.70
2019-02-19T09:08:20.978Z,12.68
2019-02-19T09:10:50.643Z,13.38
2019-02-19T09:13:20.407Z,13.95
2019-02-19T09:15:50.065Z,15.20
2019-02-19T09:18:19.755Z,15.08
2019-02-19T09:20:49.542Z,15.35
2019-02-19T09:23:19.389Z,14.23
2019-02-19T09:25:49.210Z,13.93
2019-02-19T09:28:18.952Z,13.72
2019-02-19T09:30:48.783Z,13.80
2019-02-19T09:33:18.546Z,13.25
2019-02-19T09:35:48.298Z,12.82
2019-02-19T09:38:18.179Z,13.30
2019-02-19T09:40:47.936Z,13.60
2019-02-19T09:43:17.700Z,12.88
2019-02-19T09:45:47.749Z,13.25
2019-02-19T09:48:17.502Z,13.70
2019-02-19T09:50:47.385Z,13.25
2019-02-19T09:53:17.399Z,14.27
2019-02-19T09:55:47.208Z,13.78
2019-02-19T09:58:17.127Z,13.27
2019-02-19T10:00:47.150Z,13.90
2019-02-19T10:03:17.327Z,13.17
2019-02-19T10:05:48.146Z,14.38
2019-02-19T10:08:17.964Z,14.25
2019-02-19T10:10:48.804Z,14.10
2019-02-19T10:13:19.728Z,13.60
2019-02-19T10:15:49.516Z,13.20
2019-02-19T10:18:19.347Z,17.07
2019-02-19T10:20:49.096Z,13.78
2019-02-19T10:23:18.969Z,14.53
2019-02-19T10:25:48.934Z,13.65
2019-02-19T10:28:18.717Z,18.47
2019-02-19T10:30:48.560Z,14.70
2019-02-19T10:33:18.454Z,15.38
2019-02-19T10:35:49.674Z,14.65
2019-02-19T10:38:20.332Z,14.78
2019-02-19T10:40:50.231Z,15.55
2019-02-19T10:43:19.950Z,13.98
2019-02-19T10:45:49.782Z,13.18
2019-02-19T10:48:19.562Z,14.23
2019-02-19T10:50:49.504Z,14.87
2019-02-19T10:53:19.391Z,16.73
2019-02-19T10:55:49.167Z,20.37
2019-02-19T10:58:22.875Z,13.80
2019-02-19T11:00:50.567Z,14.00
2019-02-19T11:03:20.411Z,13.83
2019-02-19T11:05:50.211Z,14.07
2019-02-19T11:08:19.974Z,14.47
2019-02-19T11:10:50.872Z,14.03
2019-02-19T11:13:20.803Z,13.88
2019-02-19T11:15:50.517Z,15.18
2019-02-19T11:18:28.161Z,13.80
2019-02-19T11:20:51.868Z,13.68
2019-02-19T11:23:21.771Z,14.73
2019-02-19T11:25:51.624Z,13.35
2019-02-19T11:28:21.370Z,14.55
2019-02-19T11:30:51.191Z,15.40
2019-02-19T11:33:20.979Z,13.97
2019-02-19T11:35:50.858Z,14.50
2019-02-19T11:38:20.721Z,13.95
2019-02-19T11:40:50.595Z,14.60
2019-02-19T11:43:21.521Z,13.78
2019-02-19T11:45:51.244Z,14.13
2019-02-19T11:48:21.085Z,15.05
2019-02-19T11:50:50.839Z,13.20
2019-02-19T11:53:22.285Z,14.30
2019-02-19T11:55:52.262Z,13.83
2019-02-19T11:58:23.105Z,14.20
2019-02-19T12:00:52.968Z,15.03
2019-02-19T12:03:22.795Z,14.40
2019-02-19T12:05:52.728Z,14.55
2019-02-19T12:08:22.441Z,13.55
2019-02-19T12:10:52.399Z,14.35
2019-02-19T12:13:24.163Z,12.90
2019-02-19T12:15:54.085Z,12.50
2019-02-19T12:18:23.880Z,12.37
2019-02-19T12:20:53.786Z,12.40
2019-02-19T12:23:23.636Z,12.73
2019-02-19T12:25:53.447Z,13.57
2019-02-19T12:28:23.279Z,10.85
2019-02-19T12:30:53.182Z,10.25
2019-02-19T12:33:23.062Z,9.75
2019-02-19T12:35:52.961Z,10.80
2019-02-19T12:38:22.806Z,10.18
2019-02-19T12:40:52.507Z,9.35
2019-02-19T12:43:22.321Z,9.40
2019-02-19T12:45:52.158Z,9.18
2019-02-19T12:48:22.033Z,8.90
2019-02-19T12:50:51.855Z,8.60
2019-02-19T12:53:21.666Z,10.20
2019-02-19T12:55:51.687Z,9.38
2019-02-19T12:58:21.571Z,10.10
2019-02-19T13:00:51.401Z,9.67
2019-02-19T13:03:21.203Z,10.32
2019-02-19T13:05:51.138Z,10.08
2019-02-19T13:08:20.914Z,10.25
2019-02-19T13:10:50.743Z,13.08
2019-02-19T13:13:20.541Z,10.90
2019-02-19T13:15:50.370Z,10.25
2019-02-19T13:18:20.194Z,9.00
2019-02-19T13:20:50.149Z,9.03
2019-02-19T13:23:20.034Z,9.08
2019-02-19T13:25:49.803Z,8.20
2019-02-19T13:28:19.659Z,7.47
2019-02-19T13:30:49.450Z,6.55
2019-02-19T13:33:19.342Z,6.70
2019-02-19T13:35:50.693Z,7.45
2019-02-19T13:38:20.745Z,6.60
2019-02-19T13:40:50.538Z,7.80
2019-02-19T13:43:20.655Z,7.75
2019-02-19T13:45:50.443Z,8.23
2019-02-19T13:48:20.241Z,8.50
2019-02-19T13:50:50.222Z,8.10
2019-02-19T13:53:27.969Z,8.50
2019-02-19T13:55:58.802Z,8.83
2019-02-19T13:58:28.771Z,7.30
2019-02-19T14:00:58.699Z,7.10
2019-02-19T14:03:28.582Z,6.50
2019-02-19T14:06:00.603Z,5.70
2019-02-19T14:08:30.547Z,5.35
2019-02-19T14:11:00.330Z,5.03
2019-02-19T14:13:30.314Z,4.13
2019-02-19T14:16:19.037Z,3.67
2019-02-19T14:19:02.749Z,3.92
2019-02-19T14:21:50.380Z,3.20
2019-02-19T14:24:33.803Z,2.90
2019-02-19T14:27:17.641Z,2.35
2019-02-19T14:30:06.492Z,2.50
2019-02-19T14:32:47.654Z,2.40
2019-02-19T14:35:42.524Z,2.83
2019-02-19T14:38:31.438Z,3.10
2019-02-19T14:41:30.562Z,2.37
2019-02-19T14:44:24.120Z,2.67
2019-02-19T14:47:11.656Z,2.47
2019-02-19T14:50:00.512Z,3.27
2019-02-19T14:52:52.921Z,2.92
2019-02-19T14:55:42.703Z,4.90
2019-02-19T14:58:31.243Z,2.90
2019-02-19T15:01:32.806Z,2.85
2019-02-19T15:04:14.115Z,2.50
2019-02-19T15:07:01.498Z,2.47
2019-02-19T15:09:48.737Z,2.08
2019-02-19T15:12:37.550Z,2.22
2019-02-19T15:15:27.335Z,2.65
2019-02-19T15:18:29.364Z,2.17
2019-02-19T15:21:27.541Z,2.00
2019-02-19T15:24:19.139Z,4.58
2019-02-19T15:27:08.097Z,2.00
2019-02-19T15:30:15.315Z,1.80
2019-02-19T15:33:13.278Z,8.53
2019-02-19T15:35:55.366Z,1.90
2019-02-19T15:38:44.283Z,2.05
2019-02-19T15:41:39.416Z,2.00
2019-02-19T15:44:32.436Z,1.98
2019-02-19T15:47:15.614Z,2.00
2019-02-19T15:50:07.143Z,2.00
2019-02-19T15:52:47.594Z,2.00
2019-02-19T15:55:37.058Z,1.70
2019-02-19T15:58:35.438Z,1.87
2019-02-19T16:01:23.006Z,1.70
2019-02-19T16:03:58.522Z,1.72
2019-02-19T16:06:47.391Z,1.67
2019-02-19T16:09:45.267Z,3.45
2019-02-19T16:12:29.449Z,3.42
2019-02-19T16:15:25.753Z,4.83
2019-02-19T16:18:10.446Z,2.27
2019-02-19T16:21:02.182Z,3.70
2019-02-19T16:23:47.643Z,2.27
2019-02-19T16:26:42.714Z,2.33
2019-02-19T16:29:30.507Z,2.10
2019-02-19T16:32:09.687Z,2.10
2019-02-19T16:35:13.546Z,2.30
2019-02-19T16:38:08.031Z,2.17
2019-02-19T16:40:56.103Z,2.33
2019-02-19T16:43:43.837Z,2.45
2019-02-19T16:46:41.514Z,5.00
2019-02-19T16:49:37.634Z,2.52
2019-02-19T16:52:38.476Z,2.17
2019-02-19T16:55:17.033Z,2.05
2019-02-19T16:57:54.854Z,3.00
2019-02-19T17:00:36.394Z,2.45
2019-02-19T17:03:25.114Z,2.77
2019-02-19T17:06:18.608Z,2.62
2019-02-19T17:09:05.703Z,2.70
2019-02-19T17:11:59.347Z,2.60
2019-02-19T17:14:48.151Z,2.90
2019-02-19T17:17:40.863Z,2.60
2019-02-19T17:20:39.038Z,2.10
2019-02-19T17:23:35.650Z,2.00
2019-02-19T17:26:33.301Z,1.92
2019-02-19T17:29:12.366Z,2.40
2019-02-19T17:32:11.630Z,3.87
2019-02-19T17:34:46.294Z,2.02
2019-02-19T17:37:42.063Z,1.90
2019-02-19T17:40:17.159Z,1.92
2019-02-19T17:43:01.211Z,2.00
2019-02-19T17:45:59.033Z,2.27
2019-02-19T17:48:43.102Z,2.62
2019-02-19T17:51:29.471Z,3.30
2019-02-19T17:54:25.014Z,7.33
2019-02-19T17:57:28.318Z,4.83
2019-02-19T18:00:08.920Z,5.60
2019-02-19T18:02:46.971Z,9.28
2019-02-19T18:05:34.894Z,9.78
2019-02-19T18:08:29.683Z,36.70
2019-02-19T18:11:15.902Z,3.33
2019-02-19T18:14:22.748Z,3.30
2019-02-19T18:17:17.448Z,2.47
2019-02-19T18:19:47.616Z,3.08
2019-02-19T18:22:17.473Z,2.80
2019-02-19T18:24:47.286Z,2.80
2019-02-19T18:27:17.079Z,3.40
2019-02-19T18:29:46.942Z,2.95
2019-02-19T18:32:16.630Z,3.27
2019-02-19T18:34:46.391Z,3.47
2019-02-19T18:37:16.077Z,3.60
2019-02-19T18:39:45.772Z,3.20
2019-02-19T18:42:15.438Z,3.72
2019-02-19T18:44:46.095Z,2.87
2019-02-19T18:47:15.854Z,2.87
2019-02-19T18:49:45.663Z,2.90
2019-02-19T18:52:15.398Z,3.27
2019-02-19T18:54:45.146Z,3.20
2019-02-19T18:57:14.903Z,3.60
2019-02-19T18:59:44.603Z,3.13
2019-02-19T19:02:14.274Z,3.10
2019-02-19T19:04:44.071Z,3.10
2019-02-19T19:07:13.740Z,3.47
2019-02-19T19:09:43.538Z,3.65
2019-02-19T19:12:13.193Z,3.58
2019-02-19T19:14:42.911Z,3.40
2019-02-19T19:17:13.785Z,3.70
2019-02-19T19:19:43.507Z,3.43
2019-02-19T19:22:13.248Z,3.47
2019-02-19T19:24:42.931Z,3.92
2019-02-19T19:27:12.787Z,3.98
2019-02-19T19:29:42.512Z,4.27
2019-02-19T19:32:12.188Z,4.00
2019-02-19T19:34:42.006Z,4.17
2019-02-19T19:37:11.725Z,4.60
2019-02-19T19:39:41.474Z,4.47
2019-02-19T19:42:11.219Z,4.62
2019-02-19T19:44:41.027Z,4.62
2019-02-19T19:47:10.707Z,4.12
2019-02-19T19:49:40.378Z,4.50
2019-02-19T19:52:10.232Z,4.00
2019-02-19T19:54:40.135Z,3.80
2019-02-19T19:57:09.904Z,4.07
2019-02-19T19:59:39.559Z,4.60
2019-02-19T20:02:09.299Z,4.05
2019-02-19T20:04:38.941Z,4.00
2019-02-19T20:07:08.695Z,3.97
2019-02-19T20:09:38.483Z,4.58
2019-02-19T20:12:08.301Z,5.78
2019-02-19T20:14:38.034Z,6.25
2019-02-19T20:17:07.891Z,5.83
2019-02-19T20:19:38.586Z,6.05
2019-02-19T20:22:08.266Z,6.95
2019-02-19T20:24:37.974Z,5.72
2019-02-19T20:27:07.870Z,6.42
2019-02-19T20:29:37.647Z,5.17
2019-02-19T20:32:07.537Z,4.60
2019-02-19T20:34:38.170Z,4.40
2019-02-19T20:37:07.965Z,5.28
2019-02-19T20:39:37.703Z,5.12
2019-02-19T20:42:07.410Z,5.10
2019-02-19T20:44:37.141Z,4.83
2019-02-19T20:47:06.832Z,4.50
2019-02-19T20:49:36.616Z,4.90
2019-02-19T20:52:06.351Z,4.83
2019-02-19T20:54:36.021Z,4.70
2019-02-19T20:57:05.820Z,5.70
2019-02-19T20:59:35.570Z,10.90
2019-02-19T21:02:05.337Z,9.00
2019-02-19T21:04:35.091Z,10.25
2019-02-19T21:07:04.911Z,8.38
2019-02-19T21:09:43.522Z,4.87
2019-02-19T21:12:06.170Z,6.15
2019-02-19T21:14:35.947Z,5.22
2019-02-19T21:17:05.619Z,5.08
2019-02-19T21:19:35.318Z,5.22
2019-02-19T21:22:04.978Z,5.00
2019-02-19T21:24:34.747Z,5.40
2019-02-19T21:27:04.515Z,5.28
2019-02-19T21:29:34.203Z,5.15
2019-02-19T21:32:03.895Z,5.05
2019-02-19T21:34:33.583Z,5.83
2019-02-19T21:37:03.304Z,5.35
2019-02-19T21:39:32.979Z,5.80
2019-02-19T21:42:02.656Z,5.60
2019-02-19T21:44:32.354Z,5.40
2019-02-19T21:47:02.191Z,5.30
2019-02-19T21:49:32.062Z,5.62
2019-02-19T21:52:01.818Z,5.08
2019-02-19T21:54:31.544Z,5.35
2019-02-19T21:57:01.194Z,6.08
2019-02-19T21:59:31.126Z,5.83
2019-02-19T22:02:00.790Z,7.03
2019-02-19T22:04:32.078Z,6.75
2019-02-19T22:07:02.008Z,6.40
2019-02-19T22:09:31.860Z,9.45
2019-02-19T22:12:01.625Z,6.40
2019-02-19T22:14:31.406Z,5.60
2019-02-19T22:17:01.083Z,4.92
2019-02-19T22:19:30.781Z,6.58
2019-02-19T22:22:10.987Z,4.80
2019-02-19T22:24:41.814Z,5.50
2019-02-19T22:27:11.479Z,6.37
2019-02-19T22:29:41.256Z,5.42
2019-02-19T22:32:11.950Z,5.00
2019-02-19T22:34:41.744Z,4.72
2019-02-19T22:37:11.409Z,5.30
2019-02-19T22:39:41.114Z,5.22
2019-02-19T22:42:10.889Z,4.92
2019-02-19T22:44:40.696Z,5.00
2019-02-19T22:47:10.367Z,5.90
2019-02-19T22:49:40.039Z,4.47
2019-02-19T22:52:12.566Z,4.97
2019-02-19T22:54:52.751Z,5.65
2019-02-19T22:57:22.412Z,5.12
2019-02-19T22:59:52.113Z,5.80
2019-02-19T23:02:27.491Z,5.12
2019-02-19T23:04:57.250Z,5.73
2019-02-19T23:07:27.017Z,6.30
2019-02-19T23:09:56.780Z,6.72
2019-02-19T23:12:27.607Z,6.50
2019-02-19T23:14:57.295Z,7.00
2019-02-19T23:17:26.966Z,6.90
2019-02-19T23:19:56.707Z,7.15
2019-02-19T23:22:26.444Z,7.03
2019-02-19T23:24:56.301Z,7.30
2019-02-19T23:27:26.115Z,6.83
2019-02-19T23:29:55.863Z,7.87
2019-02-19T23:32:25.749Z,7.50
2019-02-19T23:35:20.783Z,7.60
2019-02-19T23:37:50.452Z,7.15
2019-02-19T23:40:20.218Z,7.58
2019-02-19T23:42:49.947Z,7.28
2019-02-19T23:45:19.638Z,6.78
2019-02-19T23:47:49.318Z,7.12
2019-02-19T23:50:19.297Z,6.90
2019-02-19T23:52:49.030Z,7.50
2019-02-19T23:55:18.732Z,7.17
2019-02-19T23:57:48.422Z,7.10
